sensor_id;sensor_type;location;lat;lon;timestamp;temperature;humidity
21184;DHT22;18176;49.502;11.754;2023-11-21T00:01:33;6.50;99.90
21184;DHT22;18176;49.502;11.754;2023-11-21T00:05:36;6.50;99.90
21184;DHT22;18176;49.502;11.754;2023-11-21T00:09:38;6.50;99.90
21184;DHT22;18176;49.502;11.754;2023-11-21T00:13:39;6.40;99.90
21184;DHT22;18176;49.502;11.754;2023-11-21T00:17:41;6.50;99.90
21184;DHT22;18176;49.502;11.754;2023-11-21T00:21:44;6.50;99.90
21184;DHT22;18176;49.502;11.754;2023-11-21T00:25:44;6.40;99.90
21184;DHT22;18176;49.502;11.754;2023-11-21T00:29:45;6.40;99.90
21184;DHT22;18176;49.502;11.754;2023-11-21T00:33:45;6.40;99.90
21184;DHT22;18176;49.502;11.754;2023-11-21T00:37:48;6.40;99.90
21184;DHT22;18176;49.502;11.754;2023-11-21T00:41:49;6.40;99.90
21184;DHT22;18176;49.502;11.754;2023-11-21T00:45:50;6.40;99.90
21184;DHT22;18176;49.502;11.754;2023-11-21T00:49:51;6.30;99.90
21184;DHT22;18176;49.502;11.754;2023-11-21T00:53:54;6.30;99.90
21184;DHT22;18176;49.502;11.754;2023-11-21T00:57:54;6.30;99.90
21184;DHT22;18176;49.502;11.754;2023-11-21T01:01:55;6.30;99.90
21184;DHT22;18176;49.502;11.754;2023-11-21T01:05:57;6.30;99.90
21184;DHT22;18176;49.502;11.754;2023-11-21T01:10:00;6.30;99.90
21184;DHT22;18176;49.502;11.754;2023-11-21T01:14:03;6.30;99.90
21184;DHT22;18176;49.502;11.754;2023-11-21T01:18:05;6.30;99.90
21184;DHT22;18176;49.502;11.754;2023-11-21T01:22:06;6.30;99.90
21184;DHT22;18176;49.502;11.754;2023-11-21T01:26:09;6.30;99.90
21184;DHT22;18176;49.502;11.754;2023-11-21T01:30:10;6.30;99.90
21184;DHT22;18176;49.502;11.754;2023-11-21T01:34:10;6.30;99.90
21184;DHT22;18176;49.502;11.754;2023-11-21T01:38:12;6.20;99.90
21184;DHT22;18176;49.502;11.754;2023-11-21T01:42:17;6.30;99.90
21184;DHT22;18176;49.502;11.754;2023-11-21T01:46:17;6.30;99.90
21184;DHT22;18176;49.502;11.754;2023-11-21T01:50:18;6.30;99.90
21184;DHT22;18176;49.502;11.754;2023-11-21T01:54:20;6.30;99.90
21184;DHT22;18176;49.502;11.754;2023-11-21T01:58:23;6.30;99.90
21184;DHT22;18176;49.502;11.754;2023-11-21T02:02:24;6.30;99.90
21184;DHT22;18176;49.502;11.754;2023-11-21T02:06:25;6.30;99.90
21184;DHT22;18176;49.502;11.754;2023-11-21T02:10:28;6.20;99.90
21184;DHT22;18176;49.502;11.754;2023-11-21T02:14:31;6.20;99.90
21184;DHT22;18176;49.502;11.754;2023-11-21T02:18:31;6.30;99.90
21184;DHT22;18176;49.502;11.754;2023-11-21T02:22:35;6.20;99.90
21184;DHT22;18176;49.502;11.754;2023-11-21T02:26:41;6.20;99.90
21184;DHT22;18176;49.502;11.754;2023-11-21T02:30:43;6.20;99.90
21184;DHT22;18176;49.502;11.754;2023-11-21T02:34:43;6.20;99.90
21184;DHT22;18176;49.502;11.754;2023-11-21T02:38:44;6.10;99.90
21184;DHT22;18176;49.502;11.754;2023-11-21T02:42:47;6.10;99.90
21184;DHT22;18176;49.502;11.754;2023-11-21T02:46:49;6.00;99.90
21184;DHT22;18176;49.502;11.754;2023-11-21T02:50:49;6.00;99.90
21184;DHT22;18176;49.502;11.754;2023-11-21T02:54:50;6.00;99.90
21184;DHT22;18176;49.502;11.754;2023-11-21T02:58:55;6.00;99.90
21184;DHT22;18176;49.502;11.754;2023-11-21T03:02:56;6.00;99.90
21184;DHT22;18176;49.502;11.754;2023-11-21T03:06:57;6.00;99.90
21184;DHT22;18176;49.502;11.754;2023-11-21T03:10:58;6.00;99.90
21184;DHT22;18176;49.502;11.754;2023-11-21T03:15:03;6.10;99.90
21184;DHT22;18176;49.502;11.754;2023-11-21T03:19:04;6.10;99.90
21184;DHT22;18176;49.502;11.754;2023-11-21T03:23:05;6.00;99.90
21184;DHT22;18176;49.502;11.754;2023-11-21T03:27:05;6.10;99.90
21184;DHT22;18176;49.502;11.754;2023-11-21T03:31:08;6.10;99.90
21184;DHT22;18176;49.502;11.754;2023-11-21T03:35:09;6.10;99.90
21184;DHT22;18176;49.502;11.754;2023-11-21T03:39:09;6.10;99.90
21184;DHT22;18176;49.502;11.754;2023-11-21T03:43:10;6.10;99.90
21184;DHT22;18176;49.502;11.754;2023-11-21T03:47:13;6.10;99.90
21184;DHT22;18176;49.502;11.754;2023-11-21T03:51:13;6.10;99.90
21184;DHT22;18176;49.502;11.754;2023-11-21T03:55:14;6.10;99.90
21184;DHT22;18176;49.502;11.754;2023-11-21T03:59:14;6.10;99.90
21184;DHT22;18176;49.502;11.754;2023-11-21T04:03:17;6.10;99.90
21184;DHT22;18176;49.502;11.754;2023-11-21T04:07:17;6.10;99.90
21184;DHT22;18176;49.502;11.754;2023-11-21T04:11:19;6.10;99.90
21184;DHT22;18176;49.502;11.754;2023-11-21T04:15:19;6.10;99.90
21184;DHT22;18176;49.502;11.754;2023-11-21T04:19:22;6.00;99.90
21184;DHT22;18176;49.502;11.754;2023-11-21T04:23:22;6.00;99.90
21184;DHT22;18176;49.502;11.754;2023-11-21T04:27:23;6.10;99.90
21184;DHT22;18176;49.502;11.754;2023-11-21T04:31:23;6.10;99.90
21184;DHT22;18176;49.502;11.754;2023-11-21T04:35:26;6.10;99.90
21184;DHT22;18176;49.502;11.754;2023-11-21T04:39:26;6.10;99.90
21184;DHT22;18176;49.502;11.754;2023-11-21T04:43:26;6.00;99.90
21184;DHT22;18176;49.502;11.754;2023-11-21T04:47:27;6.00;99.90
21184;DHT22;18176;49.502;11.754;2023-11-21T04:51:30;6.00;99.90
21184;DHT22;18176;49.502;11.754;2023-11-21T04:55:30;6.00;99.90
21184;DHT22;18176;49.502;11.754;2023-11-21T04:59:30;6.00;99.90
21184;DHT22;18176;49.502;11.754;2023-11-21T05:03:31;6.10;99.90
21184;DHT22;18176;49.502;11.754;2023-11-21T05:07:34;6.00;99.90
21184;DHT22;18176;49.502;11.754;2023-11-21T05:11:34;6.00;99.90
21184;DHT22;18176;49.502;11.754;2023-11-21T05:15:35;6.00;99.90
21184;DHT22;18176;49.502;11.754;2023-11-21T05:19:35;6.00;99.90
21184;DHT22;18176;49.502;11.754;2023-11-21T05:23:40;6.00;99.90
21184;DHT22;18176;49.502;11.754;2023-11-21T05:27:40;6.00;99.90
21184;DHT22;18176;49.502;11.754;2023-11-21T05:31:40;6.00;99.90
21184;DHT22;18176;49.502;11.754;2023-11-21T05:35:41;5.90;99.90
21184;DHT22;18176;49.502;11.754;2023-11-21T05:39:44;5.90;99.90
21184;DHT22;18176;49.502;11.754;2023-11-21T05:43:44;5.90;99.90
21184;DHT22;18176;49.502;11.754;2023-11-21T05:47:45;5.90;99.90
21184;DHT22;18176;49.502;11.754;2023-11-21T05:51:46;5.90;99.90
21184;DHT22;18176;49.502;11.754;2023-11-21T05:55:49;5.90;99.90
21184;DHT22;18176;49.502;11.754;2023-11-21T05:59:50;5.80;99.90
21184;DHT22;18176;49.502;11.754;2023-11-21T06:03:50;5.90;99.90
21184;DHT22;18176;49.502;11.754;2023-11-21T06:07:52;5.80;99.90
21184;DHT22;18176;49.502;11.754;2023-11-21T06:11:56;5.80;99.90
21184;DHT22;18176;49.502;11.754;2023-11-21T06:15:56;5.70;99.90
21184;DHT22;18176;49.502;11.754;2023-11-21T06:19:57;5.70;99.90
21184;DHT22;18176;49.502;11.754;2023-11-21T06:23:58;5.70;99.90
21184;DHT22;18176;49.502;11.754;2023-11-21T06:28:01;5.90;99.90
21184;DHT22;18176;49.502;11.754;2023-11-21T06:32:02;6.00;99.90
21184;DHT22;18176;49.502;11.754;2023-11-21T06:36:04;6.00;99.90
21184;DHT22;18176;49.502;11.754;2023-11-21T06:40:06;6.00;99.90
21184;DHT22;18176;49.502;11.754;2023-11-21T06:44:09;6.00;99.90
21184;DHT22;18176;49.502;11.754;2023-11-21T06:48:10;6.00;99.90
21184;DHT22;18176;49.502;11.754;2023-11-21T06:52:12;5.90;99.90
21184;DHT22;18176;49.502;11.754;2023-11-21T06:56:15;5.90;99.90
21184;DHT22;18176;49.502;11.754;2023-11-21T07:00:19;5.80;99.90
21184;DHT22;18176;49.502;11.754;2023-11-21T07:04:20;5.70;99.90
21184;DHT22;18176;49.502;11.754;2023-11-21T07:08:20;5.80;99.90
21184;DHT22;18176;49.502;11.754;2023-11-21T07:12:20;5.80;99.90
21184;DHT22;18176;49.502;11.754;2023-11-21T07:16:25;5.90;99.90
21184;DHT22;18176;49.502;11.754;2023-11-21T07:20:27;5.90;99.90
21184;DHT22;18176;49.502;11.754;2023-11-21T07:24:28;5.90;99.90
21184;DHT22;18176;49.502;11.754;2023-11-21T07:28:29;6.00;99.90
21184;DHT22;18176;49.502;11.754;2023-11-21T07:32:32;6.10;99.90
21184;DHT22;18176;49.502;11.754;2023-11-21T07:36:32;6.30;99.90
21184;DHT22;18176;49.502;11.754;2023-11-21T07:40:33;6.30;99.90
21184;DHT22;18176;49.502;11.754;2023-11-21T07:44:33;6.40;99.90
21184;DHT22;18176;49.502;11.754;2023-11-21T07:48:36;6.40;99.90
21184;DHT22;18176;49.502;11.754;2023-11-21T07:52:36;6.50;99.90
21184;DHT22;18176;49.502;11.754;2023-11-21T07:56:37;6.60;99.90
21184;DHT22;18176;49.502;11.754;2023-11-21T08:00:37;6.60;99.90
21184;DHT22;18176;49.502;11.754;2023-11-21T08:04:40;6.70;99.90
21184;DHT22;18176;49.502;11.754;2023-11-21T08:08:41;6.80;99.90
21184;DHT22;18176;49.502;11.754;2023-11-21T08:12:41;7.00;99.90
21184;DHT22;18176;49.502;11.754;2023-11-21T08:16:42;7.10;99.90
21184;DHT22;18176;49.502;11.754;2023-11-21T08:20:45;7.20;99.90
21184;DHT22;18176;49.502;11.754;2023-11-21T08:24:47;7.30;99.90
21184;DHT22;18176;49.502;11.754;2023-11-21T08:28:47;7.40;99.90
21184;DHT22;18176;49.502;11.754;2023-11-21T08:32:49;7.40;99.90
21184;DHT22;18176;49.502;11.754;2023-11-21T08:36:53;7.40;99.90
21184;DHT22;18176;49.502;11.754;2023-11-21T08:40:54;7.40;99.90
21184;DHT22;18176;49.502;11.754;2023-11-21T08:44:55;7.40;99.90
21184;DHT22;18176;49.502;11.754;2023-11-21T08:48:55;7.30;99.90
21184;DHT22;18176;49.502;11.754;2023-11-21T08:52:58;7.40;99.90
21184;DHT22;18176;49.502;11.754;2023-11-21T08:56:58;7.50;99.90
21184;DHT22;18176;49.502;11.754;2023-11-21T09:00:58;7.60;99.90
21184;DHT22;18176;49.502;11.754;2023-11-21T09:04:59;7.70;99.90
21184;DHT22;18176;49.502;11.754;2023-11-21T09:09:03;7.80;99.90
21184;DHT22;18176;49.502;11.754;2023-11-21T09:13:05;8.00;99.90
21184;DHT22;18176;49.502;11.754;2023-11-21T09:17:06;8.10;99.90
21184;DHT22;18176;49.502;11.754;2023-11-21T09:21:08;8.30;99.90
21184;DHT22;18176;49.502;11.754;2023-11-21T09:25:11;8.20;99.90
21184;DHT22;18176;49.502;11.754;2023-11-21T09:29:12;8.10;99.90
21184;DHT22;18176;49.502;11.754;2023-11-21T09:33:13;8.00;99.90
21184;DHT22;18176;49.502;11.754;2023-11-21T09:37:13;8.10;99.90
21184;DHT22;18176;49.502;11.754;2023-11-21T09:41:23;7.90;99.90
21184;DHT22;18176;49.502;11.754;2023-11-21T09:45:35;8.00;99.90
21184;DHT22;18176;49.502;11.754;2023-11-21T09:49:36;7.90;99.90
21184;DHT22;18176;49.502;11.754;2023-11-21T09:53:38;7.80;99.90
21184;DHT22;18176;49.502;11.754;2023-11-21T09:57:47;7.90;99.90
21184;DHT22;18176;49.502;11.754;2023-11-21T10:01:48;8.00;99.90
21184;DHT22;18176;49.502;11.754;2023-11-21T10:05:50;8.20;99.90
21184;DHT22;18176;49.502;11.754;2023-11-21T10:09:55;8.20;99.90
21184;DHT22;18176;49.502;11.754;2023-11-21T10:13:59;8.30;99.90
21184;DHT22;18176;49.502;11.754;2023-11-21T10:18:03;8.40;99.90
21184;DHT22;18176;49.502;11.754;2023-11-21T10:22:06;8.50;99.90
21184;DHT22;18176;49.502;11.754;2023-11-21T10:26:09;8.80;99.90
21184;DHT22;18176;49.502;11.754;2023-11-21T10:30:32;8.90;99.90
21184;DHT22;18176;49.502;11.754;2023-11-21T10:34:34;8.80;99.90
21184;DHT22;18176;49.502;11.754;2023-11-21T10:38:42;9.00;99.90
21184;DHT22;18176;49.502;11.754;2023-11-21T10:42:48;9.10;99.90
21184;DHT22;18176;49.502;11.754;2023-11-21T10:46:53;9.10;99.90
21184;DHT22;18176;49.502;11.754;2023-11-21T10:50:58;9.00;99.90
21184;DHT22;18176;49.502;11.754;2023-11-21T10:54:59;8.80;99.90
21184;DHT22;18176;49.502;11.754;2023-11-21T10:59:00;8.80;99.90
21184;DHT22;18176;49.502;11.754;2023-11-21T11:03:06;8.70;99.90
21184;DHT22;18176;49.502;11.754;2023-11-21T11:07:15;8.60;99.90
21184;DHT22;18176;49.502;11.754;2023-11-21T11:11:16;8.50;99.90
21184;DHT22;18176;49.502;11.754;2023-11-21T11:15:17;8.50;99.90
21184;DHT22;18176;49.502;11.754;2023-11-21T11:19:21;8.60;99.90
21184;DHT22;18176;49.502;11.754;2023-11-21T11:23:40;8.80;99.90
21184;DHT22;18176;49.502;11.754;2023-11-21T11:27:54;9.00;99.90
21184;DHT22;18176;49.502;11.754;2023-11-21T11:32:10;9.30;99.90
21184;DHT22;18176;49.502;11.754;2023-11-21T11:36:24;9.60;99.90
21184;DHT22;18176;49.502;11.754;2023-11-21T11:40:39;9.70;99.90
21184;DHT22;18176;49.502;11.754;2023-11-21T11:44:50;9.70;99.90
21184;DHT22;18176;49.502;11.754;2023-11-21T11:49:02;9.50;99.90
21184;DHT22;18176;49.502;11.754;2023-11-21T11:53:16;9.20;99.90
21184;DHT22;18176;49.502;11.754;2023-11-21T11:57:16;8.80;99.90
21184;DHT22;18176;49.502;11.754;2023-11-21T12:01:18;8.40;99.90
21184;DHT22;18176;49.502;11.754;2023-11-21T12:05:20;8.30;99.90
21184;DHT22;18176;49.502;11.754;2023-11-21T12:09:27;8.10;99.90
21184;DHT22;18176;49.502;11.754;2023-11-21T12:13:28;8.00;99.90
21184;DHT22;18176;49.502;11.754;2023-11-21T12:17:29;8.00;99.90
21184;DHT22;18176;49.502;11.754;2023-11-21T12:21:30;8.10;99.90
21184;DHT22;18176;49.502;11.754;2023-11-21T12:25:33;8.10;99.90
21184;DHT22;18176;49.502;11.754;2023-11-21T12:29:34;8.00;99.90
21184;DHT22;18176;49.502;11.754;2023-11-21T12:33:35;8.10;99.90
21184;DHT22;18176;49.502;11.754;2023-11-21T12:37:36;8.20;99.90
21184;DHT22;18176;49.502;11.754;2023-11-21T12:41:39;8.30;99.90
21184;DHT22;18176;49.502;11.754;2023-11-21T12:45:40;8.50;99.90
21184;DHT22;18176;49.502;11.754;2023-11-21T12:49:41;8.70;99.90
21184;DHT22;18176;49.502;11.754;2023-11-21T12:53:42;8.70;99.90
21184;DHT22;18176;49.502;11.754;2023-11-21T12:57:48;8.70;99.90
21184;DHT22;18176;49.502;11.754;2023-11-21T13:01:51;8.80;99.90
21184;DHT22;18176;49.502;11.754;2023-11-21T13:05:57;8.80;99.90
21184;DHT22;18176;49.502;11.754;2023-11-21T13:09:58;8.90;99.90
21184;DHT22;18176;49.502;11.754;2023-11-21T13:14:07;8.90;99.90
21184;DHT22;18176;49.502;11.754;2023-11-21T13:18:08;8.90;99.90
21184;DHT22;18176;49.502;11.754;2023-11-21T13:22:10;9.00;99.90
21184;DHT22;18176;49.502;11.754;2023-11-21T13:26:10;9.10;99.90
21184;DHT22;18176;49.502;11.754;2023-11-21T13:30:16;9.10;99.90
21184;DHT22;18176;49.502;11.754;2023-11-21T13:34:20;8.90;99.90
21184;DHT22;18176;49.502;11.754;2023-11-21T13:38:29;8.80;99.90
21184;DHT22;18176;49.502;11.754;2023-11-21T13:42:31;8.70;99.90
21184;DHT22;18176;49.502;11.754;2023-11-21T13:46:34;8.70;99.90
21184;DHT22;18176;49.502;11.754;2023-11-21T13:50:35;8.70;99.90
21184;DHT22;18176;49.502;11.754;2023-11-21T13:54:36;8.60;99.90
21184;DHT22;18176;49.502;11.754;2023-11-21T13:58:36;8.40;99.90
21184;DHT22;18176;49.502;11.754;2023-11-21T14:02:46;8.10;99.90
21184;DHT22;18176;49.502;11.754;2023-11-21T14:06:48;7.90;99.90
21184;DHT22;18176;49.502;11.754;2023-11-21T14:10:52;7.80;99.90
21184;DHT22;18176;49.502;11.754;2023-11-21T14:14:54;7.70;99.90
21184;DHT22;18176;49.502;11.754;2023-11-21T14:18:57;8.10;99.90
21184;DHT22;18176;49.502;11.754;2023-11-21T14:23:09;9.20;99.90
21184;DHT22;18176;49.502;11.754;2023-11-21T14:27:10;10.40;99.90
21184;DHT22;18176;49.502;11.754;2023-11-21T14:31:12;10.70;99.90
21184;DHT22;18176;49.502;11.754;2023-11-21T14:35:17;10.40;99.90
21184;DHT22;18176;49.502;11.754;2023-11-21T14:39:17;10.00;99.90
21184;DHT22;18176;49.502;11.754;2023-11-21T14:43:21;9.70;99.90
21184;DHT22;18176;49.502;11.754;2023-11-21T14:47:23;9.70;99.90
21184;DHT22;18176;49.502;11.754;2023-11-21T14:51:28;9.90;99.90
21184;DHT22;18176;49.502;11.754;2023-11-21T14:55:41;10.10;99.90
21184;DHT22;18176;49.502;11.754;2023-11-21T14:59:53;10.40;99.90
21184;DHT22;18176;49.502;11.754;2023-11-21T15:03:55;10.40;99.90
21184;DHT22;18176;49.502;11.754;2023-11-21T15:07:58;10.30;99.90
21184;DHT22;18176;49.502;11.754;2023-11-21T15:12:11;10.20;99.90
21184;DHT22;18176;49.502;11.754;2023-11-21T15:16:17;9.90;99.90
21184;DHT22;18176;49.502;11.754;2023-11-21T15:20:17;9.50;99.90
21184;DHT22;18176;49.502;11.754;2023-11-21T15:24:22;9.10;99.90
21184;DHT22;18176;49.502;11.754;2023-11-21T15:28:23;8.80;99.90
21184;DHT22;18176;49.502;11.754;2023-11-21T15:32:25;8.50;99.90
21184;DHT22;18176;49.502;11.754;2023-11-21T15:36:26;8.30;99.90
21184;DHT22;18176;49.502;11.754;2023-11-21T15:40:29;8.10;99.90
21184;DHT22;18176;49.502;11.754;2023-11-21T15:44:29;8.00;99.90
21184;DHT22;18176;49.502;11.754;2023-11-21T15:48:30;8.00;99.90
21184;DHT22;18176;49.502;11.754;2023-11-21T15:52:30;7.80;99.90
21184;DHT22;18176;49.502;11.754;2023-11-21T15:56:33;7.60;99.90
21184;DHT22;18176;49.502;11.754;2023-11-21T16:00:34;7.50;99.90
21184;DHT22;18176;49.502;11.754;2023-11-21T16:04:34;7.40;99.90
21184;DHT22;18176;49.502;11.754;2023-11-21T16:08:35;7.30;99.90
21184;DHT22;18176;49.502;11.754;2023-11-21T16:12:39;7.30;99.90
21184;DHT22;18176;49.502;11.754;2023-11-21T16:16:40;7.30;99.90
21184;DHT22;18176;49.502;11.754;2023-11-21T16:20:40;7.30;99.90
21184;DHT22;18176;49.502;11.754;2023-11-21T16:24:41;7.20;99.90
21184;DHT22;18176;49.502;11.754;2023-11-21T16:28:43;7.30;99.90
21184;DHT22;18176;49.502;11.754;2023-11-21T16:32:44;7.30;99.90
21184;DHT22;18176;49.502;11.754;2023-11-21T16:36:44;7.20;99.90
21184;DHT22;18176;49.502;11.754;2023-11-21T16:40:46;7.20;99.90
21184;DHT22;18176;49.502;11.754;2023-11-21T16:44:50;7.20;99.90
21184;DHT22;18176;49.502;11.754;2023-11-21T16:48:50;7.20;99.90
21184;DHT22;18176;49.502;11.754;2023-11-21T16:52:50;7.20;99.90
21184;DHT22;18176;49.502;11.754;2023-11-21T16:56:51;7.20;99.90
21184;DHT22;18176;49.502;11.754;2023-11-21T17:00:53;7.30;99.90
21184;DHT22;18176;49.502;11.754;2023-11-21T17:04:55;7.20;99.90
21184;DHT22;18176;49.502;11.754;2023-11-21T17:08:55;7.20;99.90
21184;DHT22;18176;49.502;11.754;2023-11-21T17:12:58;7.20;99.90
21184;DHT22;18176;49.502;11.754;2023-11-21T17:17:02;7.20;99.90
21184;DHT22;18176;49.502;11.754;2023-11-21T17:21:05;7.20;99.90
21184;DHT22;18176;49.502;11.754;2023-11-21T17:25:12;7.10;99.90
21184;DHT22;18176;49.502;11.754;2023-11-21T17:29:13;7.10;99.90
21184;DHT22;18176;49.502;11.754;2023-11-21T17:33:16;7.10;99.90
21184;DHT22;18176;49.502;11.754;2023-11-21T17:37:16;7.10;99.90
21184;DHT22;18176;49.502;11.754;2023-11-21T17:41:19;7.00;99.90
21184;DHT22;18176;49.502;11.754;2023-11-21T17:45:21;7.00;99.90
21184;DHT22;18176;49.502;11.754;2023-11-21T17:49:24;6.90;99.90
21184;DHT22;18176;49.502;11.754;2023-11-21T17:53:26;6.70;99.90
21184;DHT22;18176;49.502;11.754;2023-11-21T17:57:27;6.50;99.90
21184;DHT22;18176;49.502;11.754;2023-11-21T18:01:27;6.40;99.90
21184;DHT22;18176;49.502;11.754;2023-11-21T18:05:33;6.30;99.90
21184;DHT22;18176;49.502;11.754;2023-11-21T18:09:34;6.10;99.90
21184;DHT22;18176;49.502;11.754;2023-11-21T18:13:36;5.90;99.90
21184;DHT22;18176;49.502;11.754;2023-11-21T18:17:36;5.80;99.90
21184;DHT22;18176;49.502;11.754;2023-11-21T18:21:42;5.80;99.90
21184;DHT22;18176;49.502;11.754;2023-11-21T18:25:43;5.80;99.90
21184;DHT22;18176;49.502;11.754;2023-11-21T18:29:43;6.00;99.90
21184;DHT22;18176;49.502;11.754;2023-11-21T18:33:43;6.10;99.90
21184;DHT22;18176;49.502;11.754;2023-11-21T18:37:46;6.20;99.90
21184;DHT22;18176;49.502;11.754;2023-11-21T18:41:47;6.30;99.90
21184;DHT22;18176;49.502;11.754;2023-11-21T18:45:49;6.40;99.90
21184;DHT22;18176;49.502;11.754;2023-11-21T18:49:49;6.50;99.90
21184;DHT22;18176;49.502;11.754;2023-11-21T18:53:52;6.50;99.90
21184;DHT22;18176;49.502;11.754;2023-11-21T18:57:52;6.50;99.90
21184;DHT22;18176;49.502;11.754;2023-11-21T19:01:53;6.50;99.90
21184;DHT22;18176;49.502;11.754;2023-11-21T19:05:53;6.60;99.90
21184;DHT22;18176;49.502;11.754;2023-11-21T19:09:56;6.70;99.90
21184;DHT22;18176;49.502;11.754;2023-11-21T19:13:56;6.70;99.90
21184;DHT22;18176;49.502;11.754;2023-11-21T19:17:57;6.70;99.90
21184;DHT22;18176;49.502;11.754;2023-11-21T19:21:58;6.60;99.90
21184;DHT22;18176;49.502;11.754;2023-11-21T19:26:01;6.60;99.90
21184;DHT22;18176;49.502;11.754;2023-11-21T19:30:01;6.50;99.90
21184;DHT22;18176;49.502;11.754;2023-11-21T19:34:04;6.30;99.90
21184;DHT22;18176;49.502;11.754;2023-11-21T19:38:06;6.10;99.90
21184;DHT22;18176;49.502;11.754;2023-11-21T19:42:09;6.00;99.90
21184;DHT22;18176;49.502;11.754;2023-11-21T19:46:09;5.90;99.90
21184;DHT22;18176;49.502;11.754;2023-11-21T19:50:10;5.80;99.90
21184;DHT22;18176;49.502;11.754;2023-11-21T19:54:11;5.70;99.90
21184;DHT22;18176;49.502;11.754;2023-11-21T19:58:13;5.50;99.90
21184;DHT22;18176;49.502;11.754;2023-11-21T20:02:14;5.40;99.90
21184;DHT22;18176;49.502;11.754;2023-11-21T20:06:16;5.30;99.90
21184;DHT22;18176;49.502;11.754;2023-11-21T20:10:18;5.10;99.90
21184;DHT22;18176;49.502;11.754;2023-11-21T20:14:22;5.00;99.90
21184;DHT22;18176;49.502;11.754;2023-11-21T20:18:24;4.80;99.90
21184;DHT22;18176;49.502;11.754;2023-11-21T20:22:28;4.80;99.90
21184;DHT22;18176;49.502;11.754;2023-11-21T20:26:32;4.70;99.90
21184;DHT22;18176;49.502;11.754;2023-11-21T20:30:37;4.60;99.90
21184;DHT22;18176;49.502;11.754;2023-11-21T20:34:37;4.60;99.90
21184;DHT22;18176;49.502;11.754;2023-11-21T20:38:38;4.60;99.90
21184;DHT22;18176;49.502;11.754;2023-11-21T20:42:39;4.50;99.90
21184;DHT22;18176;49.502;11.754;2023-11-21T20:46:45;4.50;99.90
21184;DHT22;18176;49.502;11.754;2023-11-21T20:50:53;4.50;99.90
21184;DHT22;18176;49.502;11.754;2023-11-21T20:54:54;4.50;99.90
21184;DHT22;18176;49.502;11.754;2023-11-21T20:58:54;4.40;99.90
21184;DHT22;18176;49.502;11.754;2023-11-21T21:02:59;4.40;99.90
21184;DHT22;18176;49.502;11.754;2023-11-21T21:07:00;4.40;99.90
21184;DHT22;18176;49.502;11.754;2023-11-21T21:11:01;4.30;99.90
21184;DHT22;18176;49.502;11.754;2023-11-21T21:15:05;4.30;99.90
21184;DHT22;18176;49.502;11.754;2023-11-21T21:19:11;4.30;99.90
21184;DHT22;18176;49.502;11.754;2023-11-21T21:23:11;4.30;99.90
21184;DHT22;18176;49.502;11.754;2023-11-21T21:27:12;4.30;99.90
21184;DHT22;18176;49.502;11.754;2023-11-21T21:31:13;4.20;99.90
21184;DHT22;18176;49.502;11.754;2023-11-21T21:35:16;4.30;99.90
21184;DHT22;18176;49.502;11.754;2023-11-21T21:39:17;4.20;99.90
21184;DHT22;18176;49.502;11.754;2023-11-21T21:43:18;4.20;99.90
21184;DHT22;18176;49.502;11.754;2023-11-21T21:47:18;4.30;99.90
21184;DHT22;18176;49.502;11.754;2023-11-21T21:51:21;4.20;99.90
21184;DHT22;18176;49.502;11.754;2023-11-21T21:55:22;4.30;99.90
21184;DHT22;18176;49.502;11.754;2023-11-21T21:59:24;4.20;99.90
21184;DHT22;18176;49.502;11.754;2023-11-21T22:03:24;4.30;99.90
21184;DHT22;18176;49.502;11.754;2023-11-21T22:07:27;4.30;99.90
21184;DHT22;18176;49.502;11.754;2023-11-21T22:11:28;4.30;99.90
21184;DHT22;18176;49.502;11.754;2023-11-21T22:15:28;4.30;99.90
21184;DHT22;18176;49.502;11.754;2023-11-21T22:19:28;4.20;99.90
21184;DHT22;18176;49.502;11.754;2023-11-21T22:23:31;4.20;99.90
21184;DHT22;18176;49.502;11.754;2023-11-21T22:27:33;4.10;99.90
21184;DHT22;18176;49.502;11.754;2023-11-21T22:31:33;3.90;99.90
21184;DHT22;18176;49.502;11.754;2023-11-21T22:35:39;3.90;99.90
21184;DHT22;18176;49.502;11.754;2023-11-21T22:39:45;3.80;99.90
21184;DHT22;18176;49.502;11.754;2023-11-21T22:43:45;3.80;99.90
21184;DHT22;18176;49.502;11.754;2023-11-21T22:47:45;3.70;99.90
21184;DHT22;18176;49.502;11.754;2023-11-21T22:51:46;3.60;99.90
21184;DHT22;18176;49.502;11.754;2023-11-21T22:55:49;3.60;99.90
21184;DHT22;18176;49.502;11.754;2023-11-21T22:59:49;3.70;99.90
21184;DHT22;18176;49.502;11.754;2023-11-21T23:03:50;3.70;99.90
21184;DHT22;18176;49.502;11.754;2023-11-21T23:07:50;3.70;99.90
21184;DHT22;18176;49.502;11.754;2023-11-21T23:11:54;3.70;99.90
21184;DHT22;18176;49.502;11.754;2023-11-21T23:15:54;3.70;99.90
21184;DHT22;18176;49.502;11.754;2023-11-21T23:19:55;3.70;99.90
21184;DHT22;18176;49.502;11.754;2023-11-21T23:23:55;3.70;99.90
21184;DHT22;18176;49.502;11.754;2023-11-21T23:27:59;3.70;99.90
21184;DHT22;18176;49.502;11.754;2023-11-21T23:32:00;3.70;99.90
21184;DHT22;18176;49.502;11.754;2023-11-21T23:36:00;3.70;99.90
21184;DHT22;18176;49.502;11.754;2023-11-21T23:40:00;3.70;99.90
21184;DHT22;18176;49.502;11.754;2023-11-21T23:44:06;3.70;99.90
21184;DHT22;18176;49.502;11.754;2023-11-21T23:48:07;3.60;99.90
21184;DHT22;18176;49.502;11.754;2023-11-21T23:52:07;3.60;99.90
21184;DHT22;18176;49.502;11.754;2023-11-21T23:56:07;3.50;99.90
